sensor_id;sensor_type;location;lat;lon;timestamp;pressure;altitude;pressure_sealevel;temperature;humidity
54439;BME280;40347;53.848;27.498;2023-04-28T00:01:35;1014.3;;;5.2;60.8
54439;BME280;40347;53.848;27.498;2023-04-28T00:06:13;1014.3;;;5.1;60.8
54439;BME280;40347;53.848;27.498;2023-04-28T00:11:21;1014.4;;;5;60.6
54439;BME280;40347;53.848;27.498;2023-04-28T00:16:29;1014.4;;;5.1;60.7
54439;BME280;40347;53.848;27.498;2023-04-28T00:21:17;1014.4;;;5.1;60.9
54439;BME280;40347;53.848;27.498;2023-04-28T00:26:21;1014.5;;;4.9;62.2
54439;BME280;40347;53.848;27.498;2023-04-28T00:31:09;1014.4;;;4.9;61.9
54439;BME280;40347;53.848;27.498;2023-04-28T00:36:47;1014.5;;;4.9;61.7
54439;BME280;40347;53.848;27.498;2023-04-28T00:41:08;1014.5;;;4.8;62.2
54439;BME280;40347;53.848;27.498;2023-04-28T00:46:07;1014.6;;;4.8;62.7
54439;BME280;40347;53.848;27.498;2023-04-28T00:51:23;1014.6;;;4.8;63.1
54439;BME280;40347;53.848;27.498;2023-04-28T00:56:07;1014.7;;;4.8;63.1
54439;BME280;40347;53.848;27.498;2023-04-28T01:01:08;1014.7;;;4.8;62.7
54439;BME280;40347;53.848;27.498;2023-04-28T01:06:17;1014.7;;;4.8;62.8
54439;BME280;40347;53.848;27.498;2023-04-28T01:11:07;1014.7;;;4.8;62.6
54439;BME280;40347;53.848;27.498;2023-04-28T01:16:13;1014.7;;;4.8;62.7
54439;BME280;40347;53.848;27.498;2023-04-28T01:21:24;1014.7;;;4.7;63.2
54439;BME280;40347;53.848;27.498;2023-04-28T01:26:07;1014.7;;;4.6;63.2
54439;BME280;40347;53.848;27.498;2023-04-28T01:31:13;1014.8;;;4.6;63.1
54439;BME280;40347;53.848;27.498;2023-04-28T01:36:07;1014.8;;;4.5;63.9
54439;BME280;40347;53.848;27.498;2023-04-28T01:41:27;1014.7;;;4.5;63.7
54439;BME280;40347;53.848;27.498;2023-04-28T01:46:17;1014.8;;;4.5;63.7
54439;BME280;40347;53.848;27.498;2023-04-28T01:51:21;1014.7;;;4.5;63.4
54439;BME280;40347;53.848;27.498;2023-04-28T01:56:19;1014.8;;;4.4;63.8
54439;BME280;40347;53.848;27.498;2023-04-28T02:01:07;1014.8;;;4.4;63.2
54439;BME280;40347;53.848;27.498;2023-04-28T02:06:17;1014.8;;;4.3;63.9
54439;BME280;40347;53.848;27.498;2023-04-28T02:11:15;1014.8;;;4.3;63.9
54439;BME280;40347;53.848;27.498;2023-04-28T02:16:31;1014.8;;;4.2;63.8
54439;BME280;40347;53.848;27.498;2023-04-28T02:21:45;1014.9;;;4.1;64.3
54439;BME280;40347;53.848;27.498;2023-04-28T02:26:07;1014.9;;;4.1;64.2
54439;BME280;40347;53.848;27.498;2023-04-28T02:31:17;1014.9;;;4;64.3
54439;BME280;40347;53.848;27.498;2023-04-28T02:36:07;1014.9;;;4.1;64.1
54439;BME280;40347;53.848;27.498;2023-04-28T02:41:33;1015;;;4.1;63.7
54439;BME280;40347;53.848;27.498;2023-04-28T02:46:07;1015.1;;;4;64.1
54439;BME280;40347;53.848;27.498;2023-04-28T02:51:35;1015.1;;;4;64.1
54439;BME280;40347;53.848;27.498;2023-04-28T02:56:07;1015.1;;;4;64.5
54439;BME280;40347;53.848;27.498;2023-04-28T03:01:21;1015.1;;;3.9;64.9
54439;BME280;40347;53.848;27.498;2023-04-28T03:06:33;1015.2;;;4;64.5
54439;BME280;40347;53.848;27.498;2023-04-28T03:11:27;1015.2;;;4.1;63.9
54439;BME280;40347;53.848;27.498;2023-04-28T03:16:21;1015.3;;;4.1;63.8
54439;BME280;40347;53.848;27.498;2023-04-28T03:21:19;1015.4;;;3.9;64.8
54439;BME280;40347;53.848;27.498;2023-04-28T03:26:29;1015.4;;;3.9;64.8
54439;BME280;40347;53.848;27.498;2023-04-28T03:31:07;1015.5;;;4.2;64.1
54439;BME280;40347;53.848;27.498;2023-04-28T03:36:13;1015.5;;;4.4;63.3
54439;BME280;40347;53.848;27.498;2023-04-28T03:41:17;1015.6;;;4.6;62.8
54439;BME280;40347;53.848;27.498;2023-04-28T03:46:07;1015.6;;;4.6;62.5
54439;BME280;40347;53.848;27.498;2023-04-28T03:51:07;1015.7;;;4.5;62.7
54439;BME280;40347;53.848;27.498;2023-04-28T03:56:39;1015.8;;;4.7;62.8
54439;BME280;40347;53.848;27.498;2023-04-28T04:01:17;1015.8;;;4.8;62.3
54439;BME280;40347;53.848;27.498;2023-04-28T04:06:20;1015.8;;;5;61.7
54439;BME280;40347;53.848;27.498;2023-04-28T04:11:25;1015.9;;;5.2;61.5
54439;BME280;40347;53.848;27.498;2023-04-28T04:16:29;1015.9;;;5.4;61.1
54439;BME280;40347;53.848;27.498;2023-04-28T04:21:27;1016;;;5.9;60.4
54439;BME280;40347;53.848;27.498;2023-04-28T04:26:29;1016;;;6.2;59.7
54439;BME280;40347;53.848;27.498;2023-04-28T04:31:07;1016;;;6.2;58.8
54439;BME280;40347;53.848;27.498;2023-04-28T04:36:13;1016.1;;;6.3;58.6
54439;BME280;40347;53.848;27.498;2023-04-28T04:41:07;1016.1;;;6.3;58.3
54439;BME280;40347;53.848;27.498;2023-04-28T04:46:07;1016.1;;;6.3;58.4
54439;BME280;40347;53.848;27.498;2023-04-28T04:51:19;1016.1;;;6.7;57.9
54439;BME280;40347;53.848;27.498;2023-04-28T04:56:21;1016.1;;;7.1;56.8
54439;BME280;40347;53.848;27.498;2023-04-28T05:01:33;1016.1;;;7;55.6
54439;BME280;40347;53.848;27.498;2023-04-28T05:06:13;1016.2;;;6.9;56
54439;BME280;40347;53.848;27.498;2023-04-28T05:11:21;1016.2;;;7.2;55
54439;BME280;40347;53.848;27.498;2023-04-28T05:16:07;1016.2;;;7.3;54.3
54439;BME280;40347;53.848;27.498;2023-04-28T05:21:17;1016.2;;;7.6;53.9
54439;BME280;40347;53.848;27.498;2023-04-28T05:26:07;1016.2;;;7.9;53.3
54439;BME280;40347;53.848;27.498;2023-04-28T05:31:28;1016.3;;;7.9;52.2
54439;BME280;40347;53.848;27.498;2023-04-28T05:36:17;1016.3;;;7.8;52.7
54439;BME280;40347;53.848;27.498;2023-04-28T05:41:19;1016.3;;;7.9;52.5
54439;BME280;40347;53.848;27.498;2023-04-28T05:46:07;1016.4;;;7.7;52.5
54439;BME280;40347;53.848;27.498;2023-04-28T05:51:29;1016.4;;;7.9;53
54439;BME280;40347;53.848;27.498;2023-04-28T05:56:19;1016.4;;;8.2;52.7
54439;BME280;40347;53.848;27.498;2023-04-28T06:01:13;1016.5;;;8.6;51.6
54439;BME280;40347;53.848;27.498;2023-04-28T06:06:08;1016.5;;;8.8;50.2
54439;BME280;40347;53.848;27.498;2023-04-28T06:11:07;1016.6;;;8.8;50.2
54439;BME280;40347;53.848;27.498;2023-04-28T06:16:07;1016.6;;;8.8;49.9
54439;BME280;40347;53.848;27.498;2023-04-28T06:21:07;1016.6;;;8.4;48.6
54439;BME280;40347;53.848;27.498;2023-04-28T06:26:51;1016.6;;;8.5;50
54439;BME280;40347;53.848;27.498;2023-04-28T06:31:17;1016.6;;;8.6;48.9
54439;BME280;40347;53.848;27.498;2023-04-28T06:36:35;1016.6;;;8.7;48.4
54439;BME280;40347;53.848;27.498;2023-04-28T06:41:25;1016.6;;;8.9;47.1
54439;BME280;40347;53.848;27.498;2023-04-28T06:46:15;1016.7;;;8.7;45.9
54439;BME280;40347;53.848;27.498;2023-04-28T06:51:21;1016.7;;;8.6;46.7
54439;BME280;40347;53.848;27.498;2023-04-28T06:56:13;1016.7;;;9;47.1
54439;BME280;40347;53.848;27.498;2023-04-28T07:01:07;1016.7;;;9.4;47.3
54439;BME280;40347;53.848;27.498;2023-04-28T07:06:29;1016.7;;;9.7;44.2
54439;BME280;40347;53.848;27.498;2023-04-28T07:11:13;1016.7;;;9.6;43.3
54439;BME280;40347;53.848;27.498;2023-04-28T07:16:07;1016.8;;;9.4;43.1
54439;BME280;40347;53.848;27.498;2023-04-28T07:21:21;1016.8;;;9.4;43.9
54439;BME280;40347;53.848;27.498;2023-04-28T07:26:07;1016.8;;;9.4;43
54439;BME280;40347;53.848;27.498;2023-04-28T07:31:07;1016.8;;;9.3;42.9
54439;BME280;40347;53.848;27.498;2023-04-28T07:36:07;1016.7;;;9.2;42.3
54439;BME280;40347;53.848;27.498;2023-04-28T07:41:07;1016.7;;;9.3;43.8
54439;BME280;40347;53.848;27.498;2023-04-28T07:46:21;1016.7;;;9.5;43.1
54439;BME280;40347;53.848;27.498;2023-04-28T07:51:47;1016.7;;;9.7;43.4
54439;BME280;40347;53.848;27.498;2023-04-28T07:56:13;1016.7;;;10;43.2
54439;BME280;40347;53.848;27.498;2023-04-28T08:01:29;1016.7;;;10.3;43.6
54439;BME280;40347;53.848;27.498;2023-04-28T08:06:07;1016.7;;;10.5;42.2
54439;BME280;40347;53.848;27.498;2023-04-28T08:11:15;1016.6;;;10.3;41.4
54439;BME280;40347;53.848;27.498;2023-04-28T08:16:21;1016.6;;;10;40.9
54439;BME280;40347;53.848;27.498;2023-04-28T08:21:29;1016.6;;;9.6;41.8
54439;BME280;40347;53.848;27.498;2023-04-28T08:26:19;1016.6;;;10;41.8
54439;BME280;40347;53.848;27.498;2023-04-28T08:31:27;1016.6;;;10.7;41.2
54439;BME280;40347;53.848;27.498;2023-04-28T08:36:24;1016.6;;;11.3;40.9
54439;BME280;40347;53.848;27.498;2023-04-28T08:41:07;1016.6;;;11.4;39
54439;BME280;40347;53.848;27.498;2023-04-28T08:46:08;1016.5;;;11.6;39.7
54439;BME280;40347;53.848;27.498;2023-04-28T08:51:16;1016.6;;;11.6;38.4
54439;BME280;40347;53.848;27.498;2023-04-28T08:56:15;1016.6;;;11.8;39.6
54439;BME280;40347;53.848;27.498;2023-04-28T09:01:21;1016.6;;;12.1;38.1
54439;BME280;40347;53.848;27.498;2023-04-28T09:06:30;1016.5;;;12.3;37.8
54439;BME280;40347;53.848;27.498;2023-04-28T09:11:08;1016.5;;;12.4;38.5
54439;BME280;40347;53.848;27.498;2023-04-28T09:16:15;1016.5;;;12.7;38.6
54439;BME280;40347;53.848;27.498;2023-04-28T09:21:08;1016.5;;;12.5;37.3
54439;BME280;40347;53.848;27.498;2023-04-28T09:26:21;1016.4;;;12.3;36.9
54439;BME280;40347;53.848;27.498;2023-04-28T09:31:37;1016.4;;;12.1;36.9
54439;BME280;40347;53.848;27.498;2023-04-28T09:36:07;1016.4;;;11.6;37.2
54439;BME280;40347;53.848;27.498;2023-04-28T09:41:21;1016.4;;;11.6;36.4
54439;BME280;40347;53.848;27.498;2023-04-28T09:46:07;1016.4;;;11.9;36.5
54439;BME280;40347;53.848;27.498;2023-04-28T09:51:07;1016.3;;;12.4;35.8
54439;BME280;40347;53.848;27.498;2023-04-28T09:56:21;1016.3;;;12.8;35.4
54439;BME280;40347;53.848;27.498;2023-04-28T10:01:07;1016.4;;;12.9;34.9
54439;BME280;40347;53.848;27.498;2023-04-28T10:06:07;1016.4;;;12.9;36.1
54439;BME280;40347;53.848;27.498;2023-04-28T10:11:39;1016.4;;;12.7;36.8
54439;BME280;40347;53.848;27.498;2023-04-28T10:16:19;1016.4;;;12.7;36.7
54439;BME280;40347;53.848;27.498;2023-04-28T10:21:07;1016.4;;;12.5;37.2
54439;BME280;40347;53.848;27.498;2023-04-28T10:26:08;1016.4;;;12.2;37
54439;BME280;40347;53.848;27.498;2023-04-28T10:31:08;1016.3;;;12;35.4
54439;BME280;40347;53.848;27.498;2023-04-28T10:36:08;1016.2;;;12;35.7
54439;BME280;40347;53.848;27.498;2023-04-28T10:41:30;1016.2;;;12.9;35.1
54439;BME280;40347;53.848;27.498;2023-04-28T10:46:08;1016.2;;;13.2;34
54439;BME280;40347;53.848;27.498;2023-04-28T10:51:43;1016.3;;;13.1;34.8
54439;BME280;40347;53.848;27.498;2023-04-28T10:56:20;1016.3;;;13.3;34.7
54439;BME280;40347;53.848;27.498;2023-04-28T11:01:23;1016.3;;;12.9;33.8
54439;BME280;40347;53.848;27.498;2023-04-28T11:06:32;1016.3;;;12.6;34.9
54439;BME280;40347;53.848;27.498;2023-04-28T11:11:20;1016.3;;;12.4;35.2
54439;BME280;40347;53.848;27.498;2023-04-28T11:16:07;1016.3;;;12.2;35.7
54439;BME280;40347;53.848;27.498;2023-04-28T11:21:25;1016.2;;;11.9;37.1
54439;BME280;40347;53.848;27.498;2023-04-28T11:26:07;1016.3;;;11.9;37.2
54439;BME280;40347;53.848;27.498;2023-04-28T11:31:09;1016.2;;;11.8;36.7
54439;BME280;40347;53.848;27.498;2023-04-28T11:36:29;1016.2;;;11.7;36.5
54439;BME280;40347;53.848;27.498;2023-04-28T11:41:11;1016.1;;;11.7;35.7
54439;BME280;40347;53.848;27.498;2023-04-28T11:46:07;1016.1;;;11.8;36.3
54439;BME280;40347;53.848;27.498;2023-04-28T11:51:07;1016;;;12.2;36.3
54439;BME280;40347;53.848;27.498;2023-04-28T11:56:08;1016;;;13;35.3
54439;BME280;40347;53.848;27.498;2023-04-28T12:01:21;1016;;;14;33
54439;BME280;40347;53.848;27.498;2023-04-28T12:06:19;1015.9;;;14.6;33.9
54439;BME280;40347;53.848;27.498;2023-04-28T12:11:14;1015.9;;;14.8;33.4
54439;BME280;40347;53.848;27.498;2023-04-28T12:16:35;1016;;;14.7;32.9
54439;BME280;40347;53.848;27.498;2023-04-28T12:21:27;1015.9;;;14.9;33.3
54439;BME280;40347;53.848;27.498;2023-04-28T12:26:07;1015.9;;;15.1;32.8
54439;BME280;40347;53.848;27.498;2023-04-28T12:31:19;1015.9;;;15.1;32.2
54439;BME280;40347;53.848;27.498;2023-04-28T12:36:27;1015.9;;;14.7;32.9
54439;BME280;40347;53.848;27.498;2023-04-28T12:41:54;1015.8;;;14.7;32.2
54439;BME280;40347;53.848;27.498;2023-04-28T12:46:07;1015.9;;;14.5;32.3
54439;BME280;40347;53.848;27.498;2023-04-28T12:51:07;1015.9;;;14.1;32.6
54439;BME280;40347;53.848;27.498;2023-04-28T12:56:07;1015.9;;;13.9;33.1
54439;BME280;40347;53.848;27.498;2023-04-28T13:01:15;1015.8;;;13.9;33.5
54439;BME280;40347;53.848;27.498;2023-04-28T13:06:19;1015.8;;;14;31.7
54439;BME280;40347;53.848;27.498;2023-04-28T13:11:07;1015.8;;;13.8;31.3
54439;BME280;40347;53.848;27.498;2023-04-28T13:16:29;1015.8;;;13.5;32
54439;BME280;40347;53.848;27.498;2023-04-28T13:21:38;1015.9;;;13.5;32.6
54439;BME280;40347;53.848;27.498;2023-04-28T13:26:07;1015.9;;;13.5;32.5
54439;BME280;40347;53.848;27.498;2023-04-28T13:31:07;1015.9;;;13.4;32.1
54439;BME280;40347;53.848;27.498;2023-04-28T13:36:07;1015.8;;;13.3;33.3
54439;BME280;40347;53.848;27.498;2023-04-28T13:41:17;1015.8;;;13;32.2
54439;BME280;40347;53.848;27.498;2023-04-28T13:46:27;1015.8;;;13.1;33.3
54439;BME280;40347;53.848;27.498;2023-04-28T13:51:07;1015.8;;;13.3;32.9
54439;BME280;40347;53.848;27.498;2023-04-28T13:56:19;1015.8;;;13.3;33.1
54439;BME280;40347;53.848;27.498;2023-04-28T14:01:22;1015.8;;;13.4;33.5
54439;BME280;40347;53.848;27.498;2023-04-28T14:06:14;1015.8;;;13.6;33.6
54439;BME280;40347;53.848;27.498;2023-04-28T14:11:08;1015.8;;;13.6;32.7
54439;BME280;40347;53.848;27.498;2023-04-28T14:16:08;1015.8;;;13.4;33.3
54439;BME280;40347;53.848;27.498;2023-04-28T14:21:08;1015.7;;;13.4;33.2
54439;BME280;40347;53.848;27.498;2023-04-28T14:26:22;1015.7;;;13.4;33.4
54439;BME280;40347;53.848;27.498;2023-04-28T14:31:08;1015.7;;;13.5;33.6
54439;BME280;40347;53.848;27.498;2023-04-28T14:36:08;1015.7;;;13.4;33.5
54439;BME280;40347;53.848;27.498;2023-04-28T14:41:28;1015.7;;;13.4;33.3
54439;BME280;40347;53.848;27.498;2023-04-28T14:46:08;1015.7;;;13.5;33.4
54439;BME280;40347;53.848;27.498;2023-04-28T14:51:31;1015.7;;;13.5;33.6
54439;BME280;40347;53.848;27.498;2023-04-28T14:56:22;1015.7;;;13.2;33.8
54439;BME280;40347;53.848;27.498;2023-04-28T15:01:14;1015.7;;;12.8;34
54439;BME280;40347;53.848;27.498;2023-04-28T15:06:08;1015.7;;;12.7;33.6
54439;BME280;40347;53.848;27.498;2023-04-28T15:11:34;1015.6;;;12.7;34.1
54439;BME280;40347;53.848;27.498;2023-04-28T15:16:14;1015.6;;;12.5;34.5
54439;BME280;40347;53.848;27.498;2023-04-28T15:21:10;1015.6;;;12.2;34.4
54439;BME280;40347;53.848;27.498;2023-04-28T15:26:18;1015.5;;;11.8;34.9
54439;BME280;40347;53.848;27.498;2023-04-28T15:31:22;1015.5;;;11.5;35.2
54439;BME280;40347;53.848;27.498;2023-04-28T15:36:08;1015.6;;;11.5;35.7
54439;BME280;40347;53.848;27.498;2023-04-28T15:41:40;1015.6;;;11.5;35.7
54439;BME280;40347;53.848;27.498;2023-04-28T15:46:08;1015.6;;;11.6;35.7
54439;BME280;40347;53.848;27.498;2023-04-28T15:51:08;1015.6;;;11.7;35.4
54439;BME280;40347;53.848;27.498;2023-04-28T15:56:14;1015.6;;;11.8;35.4
54439;BME280;40347;53.848;27.498;2023-04-28T16:01:20;1015.6;;;12;35.5
54439;BME280;40347;53.848;27.498;2023-04-28T16:06:22;1015.6;;;12.3;35.4
54439;BME280;40347;53.848;27.498;2023-04-28T16:11:09;1015.5;;;12.3;35.4
54439;BME280;40347;53.848;27.498;2023-04-28T16:16:08;1015.6;;;12;35.7
54439;BME280;40347;53.848;27.498;2023-04-28T16:21:34;1015.6;;;11.6;35.2
54439;BME280;40347;53.848;27.498;2023-04-28T16:26:08;1015.6;;;11.1;35.5
54439;BME280;40347;53.848;27.498;2023-04-28T16:31:20;1015.6;;;10.8;36.5
54439;BME280;40347;53.848;27.498;2023-04-28T16:36:22;1015.7;;;10.6;36.6
54439;BME280;40347;53.848;27.498;2023-04-28T16:41:08;1015.7;;;10.5;37
54439;BME280;40347;53.848;27.498;2023-04-28T16:46:20;1015.7;;;10.4;37.4
54439;BME280;40347;53.848;27.498;2023-04-28T16:51:08;1015.6;;;10.3;37.5
54439;BME280;40347;53.848;27.498;2023-04-28T16:56:08;1015.6;;;10.1;37.8
54439;BME280;40347;53.848;27.498;2023-04-28T17:01:34;1015.6;;;10;38
54439;BME280;40347;53.848;27.498;2023-04-28T17:06:48;1015.6;;;9.9;38.3
54439;BME280;40347;53.848;27.498;2023-04-28T17:11:20;1015.6;;;9.8;38.7
54439;BME280;40347;53.848;27.498;2023-04-28T17:16:34;1015.6;;;9.6;38.8
54439;BME280;40347;53.848;27.498;2023-04-28T17:21:08;1015.6;;;9.5;39
54439;BME280;40347;53.848;27.498;2023-04-28T17:26:14;1015.6;;;9.4;39.5
54439;BME280;40347;53.848;27.498;2023-04-28T17:31:08;1015.6;;;9.3;39.5
54439;BME280;40347;53.848;27.498;2023-04-28T17:36:08;1015.6;;;9.2;39.7
54439;BME280;40347;53.848;27.498;2023-04-28T17:41:24;1015.6;;;9;40.4
54439;BME280;40347;53.848;27.498;2023-04-28T17:46:48;1015.6;;;8.9;40.8
54439;BME280;40347;53.848;27.498;2023-04-28T17:51:08;1015.7;;;8.7;40.8
54439;BME280;40347;53.848;27.498;2023-04-28T17:56:32;1015.7;;;8.6;41.2
54439;BME280;40347;53.848;27.498;2023-04-28T18:01:08;1015.7;;;8.5;41.5
54439;BME280;40347;53.848;27.498;2023-04-28T18:06:14;1015.8;;;8.4;42
54439;BME280;40347;53.848;27.498;2023-04-28T18:11:08;1015.8;;;8.2;42.2
54439;BME280;40347;53.848;27.498;2023-04-28T18:16:20;1015.9;;;8.1;42.6
54439;BME280;40347;53.848;27.498;2023-04-28T18:21:24;1015.9;;;8.1;42.7
54439;BME280;40347;53.848;27.498;2023-04-28T18:26:18;1015.9;;;8;43.1
54439;BME280;40347;53.848;27.498;2023-04-28T18:31:18;1015.9;;;8;43.4
54439;BME280;40347;53.848;27.498;2023-04-28T18:36:08;1015.9;;;7.9;43.2
54439;BME280;40347;53.848;27.498;2023-04-28T18:41:28;1015.9;;;7.8;43.5
54439;BME280;40347;53.848;27.498;2023-04-28T18:46:20;1015.9;;;7.7;44.2
54439;BME280;40347;53.848;27.498;2023-04-28T18:51:14;1015.9;;;7.7;44
54439;BME280;40347;53.848;27.498;2023-04-28T18:56:08;1015.9;;;7.7;44.2
54439;BME280;40347;53.848;27.498;2023-04-28T19:01:20;1015.9;;;7.6;44.6
54439;BME280;40347;53.848;27.498;2023-04-28T19:06:18;1015.9;;;7.5;44.9
54439;BME280;40347;53.848;27.498;2023-04-28T19:11:08;1015.9;;;7.4;45
54439;BME280;40347;53.848;27.498;2023-04-28T19:16:08;1015.9;;;7.4;45.2
54439;BME280;40347;53.848;27.498;2023-04-28T19:21:08;1015.9;;;7.3;45.6
54439;BME280;40347;53.848;27.498;2023-04-28T19:26:32;1015.8;;;7.3;45.7
54439;BME280;40347;53.848;27.498;2023-04-28T19:31:08;1015.9;;;7.2;45.8
54439;BME280;40347;53.848;27.498;2023-04-28T19:36:08;1015.9;;;7.1;45.7
54439;BME280;40347;53.848;27.498;2023-04-28T19:41:22;1015.8;;;7.1;45.7
54439;BME280;40347;53.848;27.498;2023-04-28T19:46:08;1015.8;;;7;46
54439;BME280;40347;53.848;27.498;2023-04-28T19:51:22;1015.9;;;7;46.2
54439;BME280;40347;53.848;27.498;2023-04-28T19:56:08;1015.8;;;6.9;45.9
54439;BME280;40347;53.848;27.498;2023-04-28T20:01:14;1015.9;;;6.9;46.3
54439;BME280;40347;53.848;27.498;2023-04-28T20:06:32;1015.9;;;6.8;46.5
54439;BME280;40347;53.848;27.498;2023-04-28T20:11:22;1015.9;;;6.8;46.7
54439;BME280;40347;53.848;27.498;2023-04-28T20:16:08;1015.9;;;6.7;47
54439;BME280;40347;53.848;27.498;2023-04-28T20:21:08;1015.9;;;6.7;47.4
54439;BME280;40347;53.848;27.498;2023-04-28T20:26:34;1015.9;;;6.6;47.7
54439;BME280;40347;53.848;27.498;2023-04-28T20:31:14;1016;;;6.5;47.5
54439;BME280;40347;53.848;27.498;2023-04-28T20:36:08;1016;;;6.6;47.6
54439;BME280;40347;53.848;27.498;2023-04-28T20:41:08;1016;;;6.6;48
54439;BME280;40347;53.848;27.498;2023-04-28T20:46:20;1016;;;6.5;48.5
54439;BME280;40347;53.848;27.498;2023-04-28T20:51:08;1016;;;6.5;48.5
54439;BME280;40347;53.848;27.498;2023-04-28T20:56:14;1016.1;;;6.4;48.9
54439;BME280;40347;53.848;27.498;2023-04-28T21:01:18;1016.1;;;6.4;49
54439;BME280;40347;53.848;27.498;2023-04-28T21:06:42;1016.1;;;6.3;48.8
54439;BME280;40347;53.848;27.498;2023-04-28T21:11:14;1016;;;6.3;48.9
54439;BME280;40347;53.848;27.498;2023-04-28T21:16:14;1016;;;6.2;49.5
54439;BME280;40347;53.848;27.498;2023-04-28T21:21:22;1016;;;6.1;49.8
54439;BME280;40347;53.848;27.498;2023-04-28T21:26:16;1016;;;6;50.1
54439;BME280;40347;53.848;27.498;2023-04-28T21:31:18;1016;;;5.9;50.7
54439;BME280;40347;53.848;27.498;2023-04-28T21:36:34;1016.1;;;5.9;51
54439;BME280;40347;53.848;27.498;2023-04-28T21:41:28;1016.1;;;5.8;51.2
54439;BME280;40347;53.848;27.498;2023-04-28T21:46:30;1016.1;;;5.7;51.4
54439;BME280;40347;53.848;27.498;2023-04-28T21:51:08;1016.1;;;5.7;51.5
54439;BME280;40347;53.848;27.498;2023-04-28T21:56:08;1016;;;5.7;51.7
54439;BME280;40347;53.848;27.498;2023-04-28T22:01:42;1016;;;5.7;51.5
54439;BME280;40347;53.848;27.498;2023-04-28T22:06:08;1015.9;;;5.7;52
54439;BME280;40347;53.848;27.498;2023-04-28T22:11:08;1015.9;;;5.6;52
54439;BME280;40347;53.848;27.498;2023-04-28T22:16:22;1015.9;;;5.6;52.5
54439;BME280;40347;53.848;27.498;2023-04-28T22:21:22;1015.9;;;5.5;52.8
54439;BME280;40347;53.848;27.498;2023-04-28T22:26:24;1015.9;;;5.5;52.7
54439;BME280;40347;53.848;27.498;2023-04-28T22:31:18;1015.9;;;5.4;52.7
54439;BME280;40347;53.848;27.498;2023-04-28T22:36:28;1015.9;;;5.4;52.6
54439;BME280;40347;53.848;27.498;2023-04-28T22:41:18;1015.9;;;5.3;52.6
54439;BME280;40347;53.848;27.498;2023-04-28T22:46:30;1015.9;;;5.3;52.9
54439;BME280;40347;53.848;27.498;2023-04-28T22:51:08;1015.9;;;5.2;53.3
54439;BME280;40347;53.848;27.498;2023-04-28T22:56:18;1015.8;;;5.2;53.6
54439;BME280;40347;53.848;27.498;2023-04-28T23:01:08;1015.8;;;5.1;53.7
54439;BME280;40347;53.848;27.498;2023-04-28T23:06:42;1015.8;;;5;54
54439;BME280;40347;53.848;27.498;2023-04-28T23:11:32;1015.7;;;4.9;54.3
54439;BME280;40347;53.848;27.498;2023-04-28T23:16:46;1015.7;;;4.9;54.7
54439;BME280;40347;53.848;27.498;2023-04-28T23:21:20;1015.7;;;4.8;55.1
54439;BME280;40347;53.848;27.498;2023-04-28T23:26:32;1015.7;;;4.8;55.3
54439;BME280;40347;53.848;27.498;2023-04-28T23:31:20;1015.7;;;4.7;55.7
54439;BME280;40347;53.848;27.498;2023-04-28T23:36:28;1015.7;;;4.6;56
54439;BME280;40347;53.848;27.498;2023-04-28T23:41:28;1015.7;;;4.6;56.4
54439;BME280;40347;53.848;27.498;2023-04-28T23:46:08;1015.7;;;4.6;56.8
54439;BME280;40347;53.848;27.498;2023-04-28T23:51:24;1015.7;;;4.5;57
54439;BME280;40347;53.848;27.498;2023-04-28T23:56:08;1015.7;;;4.5;56.8
